Airfield :
LOGIN :

Register | Disclaimer

   EN    FR    IT 

 










Legend :    VFR   Marginal VFR   IFR   Intensive IFR   Very Intensive IFR
Visi :
Ceiling :
>= 8 km
>= 3000ft
5 to 8 km
1000 to 3000 ft
1500m to 5 km
500 to 1000 ft
800 to 1500m
200 to 500 ft
< 800m
< 200 ft
Symbols :   Thunderstorms  Fog  Heavy snow  Heavy precipitations  Wind > 20 kt
SIGMETs :     Misc.  Thunderstorms  Icing  Turbulence  Mountain Waves  Volcanic Ashes







- Airport Elevation : 203 ft
- IATA code : XMJ
- Download approach charts


LFBM - Mont-De-Marsan

CURRENT METAR :
  • 171400Z AUTO 08005KT 9999 OVC033 19/15 Q1015 NOSIG

EXPIRED METARs :
  • 171330Z AUTO 08006KT 050V120 9999 FEW008 OVC033 18/15 Q1015 NOSIG
  • 171300Z AUTO 07005KT 9999 BKN008 OVC033 17/14 Q1016 BECMG BKN020
  • 171230Z AUTO VRB02KT 9999 OVC008 16/14 Q1016 BECMG BKN020
  • 171200Z AUTO 07002KT 9999 OVC007 16/14 Q1017 BECMG BKN015
  • 171130Z AUTO VRB02KT 9999 OVC005 15/14 Q1017 BECMG BKN015

TAF AMD TAF LFBM
Valid from the 17 at 12:00 until the 18 at 09:00 UTC


171207Z 1712/1809 VRB03KT 9999 OVC008
BECMG 1714/1716 BKN020
BECMG 1800/1802 0800 FG
No reported NOTAMs for that airfield.



MET'MAP, your aeronautical weather chart ! - Copyright ORBIFLY December 2007 - Disclaimer

ORBIFLY MET'MAP TEAM :

Programming & Development : Alexandra Zaïnal
Concept & Development : Baudouin d'Aumeries
Co-Development & Prog : Marc-Olivier Méhu
Technical & hardware support : Manuel Goepfert

Contact : metmap@orbifly.com




SOURCES & CREDITS :

   NOAA